Time;durP1;ratioP1;P1;durP2;ratioP2;P2;SDS_P1;SDS_P2;PMS_P1;PMS_P2;Temp;Humidity;BMP_temperature;BMP_pressure;BME280_temperature;BME280_humidity;BME280_pressure;Samples;Min_cycle;Max_cycle;Signal;HPM_P1;HPM_P2
2022/09/22 00:00:41;;;;;;;1.90;1.60;;;;;;;12.88;83.83;100530.34;5011032;28;20041;-69
2022/09/22 00:03:07;;;;;;;1.58;1.40;;;;;;;12.69;84.51;100532.41;4994289;28;20026;-67
2022/09/22 00:05:33;;;;;;;2.20;1.67;;;;;;;12.51;86.03;100530.16;5057099;28;20041;-69
2022/09/22 00:08:00;;;;;;;1.33;1.23;;;;;;;12.45;86.28;100514.44;4996988;28;20390;-69
2022/09/22 00:10:25;;;;;;;2.30;1.40;;;;;;;12.43;87.22;100521.28;4990764;28;20500;-68
2022/09/22 00:12:53;;;;;;;2.47;1.48;;;;;;;12.54;86.67;100521.63;4999126;28;20064;-66
2022/09/22 00:15:18;;;;;;;2.13;1.40;;;;;;;12.52;86.00;100523.28;5011925;28;20443;-68
2022/09/22 00:17:44;;;;;;;2.47;1.40;;;;;;;12.35;86.17;100496.84;5011868;28;20165;-69
2022/09/22 00:20:13;;;;;;;2.17;1.40;;;;;;;12.29;84.72;100526.03;5012171;28;20554;-69
2022/09/22 00:22:39;;;;;;;1.70;1.25;;;;;;;12.20;84.79;100518.88;5012322;28;20041;-68
2022/09/22 00:25:07;;;;;;;1.70;1.40;;;;;;;12.36;85.32;100520.22;5012111;28;20127;-68
2022/09/22 00:27:33;;;;;;;1.95;1.30;;;;;;;12.48;83.54;100529.19;5011875;28;20030;-70
2022/09/22 00:29:59;;;;;;;7.00;1.30;;;;;;;12.24;81.84;100481.03;5011790;28;20113;-66
2022/09/22 00:32:24;;;;;;;1.75;1.13;;;;;;;12.33;82.32;100522.72;5027067;28;20034;-68
2022/09/22 00:34:50;;;;;;;1.27;1.17;;;;;;;12.20;83.09;100528.31;5011662;28;20030;-66
2022/09/22 00:37:15;;;;;;;1.83;1.10;;;;;;;12.29;82.86;100521.72;5011686;28;20924;-69
2022/09/22 00:39:41;;;;;;;3.67;1.20;;;;;;;12.29;81.71;100523.47;5011545;28;20487;-66
2022/09/22 00:42:08;;;;;;;1.30;1.10;;;;;;;12.21;80.72;100518.06;5011457;28;20037;-65
2022/09/22 00:44:38;;;;;;;1.25;1.10;;;;;;;12.15;81.09;100525.63;5011702;28;20436;-69
2022/09/22 00:47:16;;;;;;;1.60;1.10;;;;;;;11.98;81.63;100489.72;5010057;28;20053;-69
2022/09/22 00:49:44;;;;;;;1.35;0.95;;;;;;;12.24;82.29;100519.84;5011374;28;20057;-69
2022/09/22 00:52:11;;;;;;;1.25;1.15;;;;;;;12.35;81.89;100514.97;5011900;28;20030;-68
2022/09/22 00:54:40;;;;;;;1.85;1.20;;;;;;;12.32;81.77;100513.19;5011426;28;20017;-68
2022/09/22 00:57:10;;;;;;;3.97;1.10;;;;;;;12.34;81.39;100511.53;5011320;28;20046;-69
2022/09/22 00:59:37;;;;;;;2.10;1.27;;;;;;;12.45;80.92;100514.44;5011397;28;20080;-69
2022/09/22 01:02:02;;;;;;;1.42;1.20;;;;;;;12.27;80.90;100482.00;5011169;28;20041;-69
2022/09/22 01:04:28;;;;;;;1.63;1.40;;;;;;;12.41;81.19;100508.28;5009854;28;20474;-67
2022/09/22 01:06:58;;;;;;;3.03;1.50;;;;;;;12.31;82.65;100503.66;5011452;28;20041;-68
2022/09/22 01:09:25;;;;;;;4.63;1.40;;;;;;;12.32;84.62;100508.00;5011108;28;20496;-69
2022/09/22 01:11:51;;;;;;;1.98;1.40;;;;;;;12.22;86.46;100505.97;5010141;28;20037;-69
2022/09/22 01:14:35;;;;;;;2.47;1.45;;;;;;;12.20;88.33;100505.03;5011175;28;20061;-71
2022/09/22 01:17:28;;;;;;;1.98;1.63;;;;;;;11.96;93.40;100511.19;5011085;28;20488;-68
2022/09/22 01:20:15;;;;;;;3.35;1.80;;;;;;;11.54;99.12;100504.66;5010978;28;20022;-72
2022/09/22 01:22:46;;;;;;;2.40;1.50;;;;;;;11.14;100.00;100492.94;5010900;28;20029;-69
2022/09/22 01:25:59;;;;;;;3.35;1.73;;;;;;;10.86;100.00;100452.34;5010740;28;20065;-69
2022/09/22 01:28:45;;;;;;;3.58;2.13;;;;;;;10.97;100.00;100495.81;4988874;28;20121;-69
2022/09/22 01:31:29;;;;;;;2.00;1.77;;;;;;;10.79;100.00;100459.88;4988748;28;20065;-69
2022/09/22 01:34:07;;;;;;;4.38;2.00;;;;;;;11.20;100.00;100502.63;4988733;28;20512;-68
2022/09/22 01:36:58;;;;;;;3.30;1.90;;;;;;;11.37;100.00;100496.31;4985046;28;20088;-71
2022/09/22 01:39:41;;;;;;;2.72;2.10;;;;;;;11.51;100.00;100476.09;4911529;29;20092;-70
2022/09/22 01:42:14;;;;;;;2.58;1.98;;;;;;;11.96;100.00;100500.84;4911787;29;20048;-67
2022/09/22 01:44:51;;;;;;;2.38;1.85;;;;;;;12.07;100.00;100502.06;4911718;29;20079;-67
2022/09/22 01:47:25;;;;;;;3.20;2.10;;;;;;;11.95;100.00;100512.88;4911693;29;20127;-68
2022/09/22 01:50:06;;;;;;;2.30;1.85;;;;;;;11.48;100.00;100505.31;4911860;29;20549;-69
2022/09/22 01:52:34;;;;;;;2.50;1.80;;;;;;;10.99;100.00;100472.59;4911759;29;20448;-69
2022/09/22 01:55:07;;;;;;;3.25;2.20;;;;;;;11.24;100.00;100509.63;4908251;29;20072;-69
2022/09/22 01:57:45;;;;;;;2.10;1.88;;;;;;;11.22;100.00;100504.44;4892575;29;20119;-70
2022/09/22 02:00:10;;;;;;;3.17;2.20;;;;;;;11.22;100.00;100504.44;4892760;29;20544;-69
2022/09/22 02:03:03;;;;;;;2.40;1.90;;;;;;;11.13;100.00;100501.53;4892452;29;20076;-68
2022/09/22 02:05:37;;;;;;;2.80;1.90;;;;;;;10.92;100.00;100499.94;4930384;29;20597;-70
2022/09/22 02:08:08;;;;;;;8.45;2.00;;;;;;;10.87;100.00;100495.44;4930354;29;20031;-70
2022/09/22 02:10:38;;;;;;;2.80;1.85;;;;;;;10.64;100.00;100492.88;4930188;29;20043;-66
2022/09/22 02:13:03;;;;;;;1.98;1.60;;;;;;;10.81;100.00;100503.84;4930546;29;20388;-69
2022/09/22 02:18:19;;;;;;;2.50;1.98;;;;;;;11.02;100.00;100498.56;4988362;28;20200;-66
2022/09/22 02:20:45;;;;;;;2.95;1.73;;;;;;;10.90;100.00;100498.13;4988175;28;20541;-70
2022/09/22 02:23:10;;;;;;;2.35;1.58;;;;;;;10.98;100.00;100499.28;4988060;28;20039;-69
2022/09/22 02:25:39;;;;;;;2.45;1.98;;;;;;;10.92;100.00;100473.25;4987994;28;20526;-69
2022/09/22 02:28:06;;;;;;;1.80;1.70;;;;;;;11.23;100.00;100501.03;4988115;28;20485;-67
2022/09/22 02:30:31;;;;;;;3.00;1.90;;;;;;;11.30;100.00;100494.34;4988187;28;20046;-71
2022/09/22 02:32:59;;;;;;;2.30;1.90;;;;;;;11.32;100.00;100500.47;4989752;28;20114;-67
2022/09/22 02:35:29;;;;;;;1.85;1.65;;;;;;;11.32;100.00;100503.03;4993990;28;20092;-69
2022/09/22 02:38:10;;;;;;;2.50;1.92;;;;;;;11.28;100.00;100503.78;5013636;28;20029;-66
2022/09/22 02:40:54;;;;;;;2.33;2.10;;;;;;;11.26;100.00;100508.88;5013925;28;20025;-67
2022/09/22 02:43:31;;;;;;;2.10;1.65;;;;;;;11.39;100.00;100510.19;5013936;28;20113;-72
2022/09/22 02:46:36;;;;;;;2.88;2.25;;;;;;;11.48;100.00;100494.97;5013587;28;20540;-67
2022/09/22 02:49:08;;;;;;;3.78;1.98;;;;;;;11.59;99.83;100516.03;5030923;28;20053;-69
2022/09/22 02:51:34;;;;;;;2.22;1.67;;;;;;;11.78;100.00;100512.34;5030901;28;20515;-70
2022/09/22 02:54:00;;;;;;;2.05;1.60;;;;;;;11.91;98.96;100516.22;5030941;28;20057;-68
2022/09/22 02:56:26;;;;;;;2.20;1.42;;;;;;;11.91;97.02;100495.53;5030986;28;20045;-66
2022/09/22 02:58:52;;;;;;;1.83;1.50;;;;;;;12.13;96.42;100517.78;5030706;28;20069;-69
2022/09/22 03:01:17;;;;;;;4.25;1.77;;;;;;;11.92;95.91;100479.13;5030957;28;20041;-69
2022/09/22 03:03:43;;;;;;;2.92;1.80;;;;;;;12.22;94.81;100521.50;5030949;28;20029;-67
2022/09/22 03:06:08;;;;;;;2.45;1.52;;;;;;;12.21;91.81;100527.50;5014016;28;20482;-68
2022/09/22 03:08:33;;;;;;;2.08;1.58;;;;;;;12.16;90.32;100539.44;5030778;28;20124;-69
2022/09/22 03:10:59;;;;;;;1.92;1.65;;;;;;;12.17;89.29;100541.19;5030773;28;20030;-72
2022/09/22 03:13:24;;;;;;;1.65;1.48;;;;;;;12.12;90.10;100533.28;5030314;28;20049;-68
2022/09/22 03:15:50;;;;;;;3.65;1.55;;;;;;;12.07;90.31;100538.28;5030639;28;20515;-68
2022/09/22 03:18:15;;;;;;;4.30;1.80;;;;;;;12.07;90.88;100530.53;5030571;28;20439;-69
2022/09/22 03:20:41;;;;;;;2.42;1.73;;;;;;;12.12;89.65;100528.09;5030408;28;20037;-68
2022/09/22 03:23:07;;;;;;;2.00;1.60;;;;;;;12.21;89.26;100546.53;5030467;28;20041;-69
2022/09/22 03:25:32;;;;;;;1.95;1.60;;;;;;;12.24;89.89;100549.19;5023452;28;20133;-69
2022/09/22 03:27:58;;;;;;;3.85;2.00;;;;;;;12.12;88.16;100548.81;5012689;28;20069;-71
2022/09/22 03:30:23;;;;;;;2.70;1.73;;;;;;;12.16;90.78;100542.00;5013015;28;20545;-68
2022/09/22 03:32:49;;;;;;;2.33;1.85;;;;;;;12.17;90.08;100548.94;5012695;28;20040;-69
2022/09/22 03:35:14;;;;;;;3.35;1.65;;;;;;;11.75;89.74;100538.13;5013066;28;20037;-65
2022/09/22 03:37:40;;;;;;;2.10;1.52;;;;;;;11.24;91.88;100501.88;5012723;28;20033;-68
2022/09/22 03:40:05;;;;;;;2.67;1.60;;;;;;;11.18;92.72;100543.91;5012709;28;20060;-71
2022/09/22 03:42:33;;;;;;;2.00;1.58;;;;;;;10.77;92.30;100510.59;5012489;28;20056;-67
2022/09/22 03:44:59;;;;;;;3.10;1.77;;;;;;;10.87;94.72;100541.94;5012517;28;20068;-68
2022/09/22 03:47:24;;;;;;;2.00;1.50;;;;;;;10.65;94.14;100548.84;5012155;28;20452;-71
2022/09/22 03:49:49;;;;;;;2.45;1.65;;;;;;;10.44;95.21;100541.19;5012566;28;20120;-68
2022/09/22 03:52:15;;;;;;;3.25;1.75;;;;;;;10.25;96.61;100540.41;5012554;28;20029;-69
2022/09/22 03:54:40;;;;;;;2.63;1.70;;;;;;;10.35;97.13;100536.50;5012361;28;20493;-69
2022/09/22 03:57:06;;;;;;;2.90;1.60;;;;;;;10.31;97.11;100537.22;5011499;28;20182;-68
2022/09/22 03:59:31;;;;;;;2.20;1.60;;;;;;;10.33;95.85;100548.44;5011846;28;20022;-69
2022/09/22 04:01:57;;;;;;;2.55;1.60;;;;;;;10.28;97.36;100537.06;5011663;28;20104;-67
2022/09/22 04:04:23;;;;;;;4.00;1.70;;;;;;;10.33;97.88;100527.81;5011587;28;20042;-67
2022/09/22 04:06:49;;;;;;;3.60;1.92;;;;;;;10.46;97.29;100535.25;5011671;28;20021;-68
2022/09/22 04:09:16;;;;;;;4.82;2.13;;;;;;;10.48;97.50;100533.63;5009873;28;20080;-68
2022/09/22 04:11:42;;;;;;;3.03;1.58;;;;;;;10.36;96.85;100521.09;5011913;28;20038;-65
2022/09/22 04:14:08;;;;;;;3.10;1.50;;;;;;;10.11;96.83;100488.28;5011691;28;20088;-65
2022/09/22 04:16:33;;;;;;;2.08;1.42;;;;;;;10.30;99.40;100528.56;5011650;28;21052;-67
2022/09/22 04:18:59;;;;;;;3.03;1.85;;;;;;;10.26;97.41;100531.88;5011484;28;20034;-69
2022/09/22 04:21:25;;;;;;;2.95;1.98;;;;;;;10.27;98.80;100527.56;5011966;28;20501;-69
2022/09/22 04:23:50;;;;;;;3.28;1.80;;;;;;;10.28;99.00;100537.97;5042665;28;20038;-69
2022/09/22 04:26:15;;;;;;;2.58;1.95;;;;;;;10.24;98.18;100533.50;5011624;28;20030;-68
2022/09/22 04:28:41;;;;;;;2.28;1.70;;;;;;;10.15;97.61;100544.34;5012238;28;20033;-68
2022/09/22 04:31:08;;;;;;;3.10;1.83;;;;;;;10.15;99.65;100548.63;5012044;28;20029;-65
2022/09/22 04:33:33;;;;;;;3.45;1.80;;;;;;;10.24;96.87;100537.78;5011962;28;20133;-70
2022/09/22 04:35:58;;;;;;;5.25;1.45;;;;;;;10.27;96.89;100541.38;5012004;28;20117;-67
2022/09/22 04:38:24;;;;;;;3.20;1.83;;;;;;;10.41;96.81;100528.16;5011410;28;20034;-66
2022/09/22 04:40:51;;;;;;;2.17;1.70;;;;;;;10.30;95.40;100505.34;5011659;28;20026;-68
2022/09/22 04:43:17;;;;;;;2.45;1.70;;;;;;;10.43;96.28;100534.25;5011852;28;20092;-68
2022/09/22 04:45:47;;;;;;;3.95;1.90;;;;;;;10.47;97.27;100537.00;5011566;28;20081;-67
2022/09/22 04:48:16;;;;;;;3.17;1.80;;;;;;;10.12;97.12;100492.63;5011771;28;20022;-65
2022/09/22 04:50:41;;;;;;;3.83;2.00;;;;;;;10.15;96.37;100523.69;5011678;28;20030;-68
2022/09/22 04:53:08;;;;;;;3.00;1.85;;;;;;;9.96;96.93;100506.63;5011450;28;20030;-68
2022/09/22 04:55:33;;;;;;;3.60;2.55;;;;;;;10.27;97.52;100545.63;5010857;28;20109;-66
2022/09/22 04:57:59;;;;;;;2.70;1.95;;;;;;;10.25;97.22;100545.59;5011622;28;20117;-68
2022/09/22 05:00:26;;;;;;;3.22;1.50;;;;;;;10.33;96.41;100530.41;5011454;28;20030;-71
2022/09/22 05:02:53;;;;;;;3.53;1.80;;;;;;;10.49;96.01;100555.13;5011367;28;20033;-68
2022/09/22 05:05:19;;;;;;;3.42;2.65;;;;;;;10.65;95.16;100549.75;5011383;28;20034;-69
2022/09/22 05:07:47;;;;;;;3.35;1.60;;;;;;;10.57;94.44;100550.28;5011036;28;20061;-70
2022/09/22 05:10:13;;;;;;;2.50;1.80;;;;;;;10.47;95.72;100542.19;5011220;28;20026;-69
2022/09/22 05:12:44;;;;;;;2.72;1.80;;;;;;;10.46;95.67;100545.56;5008997;28;20042;-68
2022/09/22 05:15:11;;;;;;;2.53;1.83;;;;;;;10.50;94.66;100544.00;5011248;28;20029;-69
2022/09/22 05:17:43;;;;;;;3.03;2.00;;;;;;;10.50;94.84;100551.75;5011253;28;20113;-65
2022/09/22 05:20:10;;;;;;;3.00;1.92;;;;;;;10.67;96.52;100550.69;5011111;28;20030;-69
2022/09/22 05:22:38;;;;;;;3.33;1.83;;;;;;;10.81;94.40;100552.91;5010914;28;20065;-68
2022/09/22 05:25:06;;;;;;;2.35;1.65;;;;;;;10.79;94.35;100560.59;5011158;28;20037;-68
2022/09/22 05:27:31;;;;;;;2.67;1.63;;;;;;;10.73;93.82;100554.31;5011048;28;20120;-69
2022/09/22 05:29:57;;;;;;;2.65;1.77;;;;;;;10.88;94.68;100559.16;5011058;28;20125;-68
2022/09/22 05:32:22;;;;;;;2.38;1.90;;;;;;;10.98;92.57;100554.41;5010999;28;20041;-66
2022/09/22 05:34:48;;;;;;;3.05;1.70;;;;;;;10.79;93.02;100533.88;5008757;28;20104;-68
2022/09/22 05:37:13;;;;;;;10.77;7.72;;;;;;;10.84;93.36;100533.25;5010785;28;20022;-68
2022/09/22 05:39:39;;;;;;;3.15;2.05;;;;;;;11.22;92.66;100563.00;5010811;28;20034;-68
2022/09/22 05:42:04;;;;;;;2.53;1.50;;;;;;;11.25;91.62;100563.09;5010934;28;20030;-68
2022/09/22 05:44:30;;;;;;;3.03;1.83;;;;;;;10.94;92.14;100528.41;5010581;28;20032;-69
2022/09/22 05:46:55;;;;;;;3.10;1.77;;;;;;;11.02;92.27;100531.28;5010585;28;20093;-68
2022/09/22 05:49:20;;;;;;;2.50;1.65;;;;;;;11.10;91.98;100527.25;5010657;28;20116;-68
2022/09/22 05:51:46;;;;;;;2.10;1.60;;;;;;;11.38;91.16;100565.28;5010733;28;20068;-70
2022/09/22 05:54:12;;;;;;;3.45;1.40;;;;;;;11.46;90.91;100569.03;5010901;28;20036;-68
2022/09/22 05:56:38;;;;;;;2.95;1.60;;;;;;;11.61;89.97;100576.44;5010815;28;20038;-70
2022/09/22 05:59:04;;;;;;;2.30;1.92;;;;;;;11.59;91.31;100533.22;5010594;28;20100;-71
2022/09/22 06:01:29;;;;;;;1.52;1.30;;;;;;;11.97;88.01;100570.78;5010606;28;20038;-68
2022/09/22 06:03:55;;;;;;;2.42;1.65;;;;;;;12.05;88.06;100572.72;5010723;28;20036;-68
2022/09/22 06:06:20;;;;;;;8.68;6.05;;;;;;;12.13;88.51;100573.84;5010470;28;20029;-68
2022/09/22 06:08:46;;;;;;;5.35;2.95;;;;;;;12.23;89.86;100560.38;5013593;28;20469;-68
2022/09/22 06:11:11;;;;;;;3.45;1.73;;;;;;;12.07;88.13;100566.75;5014557;28;20030;-65
2022/09/22 06:13:39;;;;;;;4.22;1.60;;;;;;;12.19;87.54;100570.59;5014680;28;20030;-68
2022/09/22 06:16:05;;;;;;;4.65;1.63;;;;;;;12.30;85.88;100566.63;5014475;28;20037;-68
2022/09/22 06:18:30;;;;;;;1.98;1.27;;;;;;;12.43;86.62;100558.41;5014385;28;20025;-69
2022/09/22 06:20:57;;;;;;;3.75;1.70;;;;;;;12.58;86.09;100560.56;5014268;28;20480;-70
2022/09/22 06:23:25;;;;;;;2.17;1.80;;;;;;;12.73;85.16;100569.66;5014539;28;20037;-65
2022/09/22 06:25:56;;;;;;;2.90;1.50;;;;;;;12.88;85.84;100571.81;5014168;28;20466;-69
2022/09/22 06:28:22;;;;;;;2.15;1.35;;;;;;;12.96;83.29;100572.94;5014200;28;20033;-70
2022/09/22 06:30:48;;;;;;;2.95;1.30;;;;;;;12.99;83.32;100567.81;5014279;28;20036;-69
2022/09/22 06:33:13;;;;;;;3.00;1.80;;;;;;;13.17;84.35;100574.34;5014018;28;20030;-69
2022/09/22 06:35:44;;;;;;;2.15;1.65;;;;;;;13.26;82.12;100566.84;5014001;28;20034;-66
2022/09/22 06:38:13;;;;;;;2.22;1.60;;;;;;;13.42;80.03;100576.81;5014185;28;20029;-65
2022/09/22 06:40:40;;;;;;;3.97;1.75;;;;;;;13.41;80.19;100588.03;5014148;28;20060;-66
2022/09/22 06:43:11;;;;;;;2.05;1.58;;;;;;;13.57;80.83;100580.66;5013967;28;20566;-69
2022/09/22 06:45:41;;;;;;;1.50;1.40;;;;;;;13.62;79.31;100583.38;5013707;28;20104;-68
2022/09/22 06:48:08;;;;;;;;;;;;;;;13.72;77.28;100578.47;5014338;28;20036;-66
2022/09/22 06:50:34;;;;;;;4.22;2.50;;;;;;;13.86;77.35;100585.75;5013926;28;19905;-71
2022/09/22 06:53:06;;;;;;;3.05;1.20;;;;;;;14.09;74.57;100586.28;5044587;28;20034;-66
2022/09/22 06:55:32;;;;;;;3.85;1.73;;;;;;;14.11;76.22;100576.84;5014033;28;20114;-72
2022/09/22 06:57:59;;;;;;;1.60;1.30;;;;;;;14.03;75.67;100524.75;5013915;28;20124;-70
2022/09/22 07:00:32;;;;;;;1.85;1.38;;;;;;;14.48;75.89;100582.91;5013826;28;20026;-65
2022/09/22 07:03:03;;;;;;;3.92;2.72;;;;;;;14.68;69.84;100585.09;5013876;28;20036;-69
2022/09/22 07:05:30;;;;;;;1.45;1.13;;;;;;;14.85;69.74;100582.84;5013646;28;20025;-73
2022/09/22 07:07:55;;;;;;;1.65;1.10;;;;;;;15.00;70.11;100582.28;5013705;28;20113;-67
2022/09/22 07:10:20;;;;;;;1.77;1.15;;;;;;;15.13;69.84;100580.84;5013389;28;20518;-69
2022/09/22 07:12:47;;;;;;;3.00;1.65;;;;;;;15.30;70.28;100595.06;5013486;28;20111;-68
2022/09/22 07:15:13;;;;;;;2.20;1.45;;;;;;;14.99;68.78;100524.22;5013212;28;20018;-71
2022/09/22 07:17:39;;;;;;;2.05;1.20;;;;;;;15.41;70.02;100591.78;5013344;28;20184;-70
2022/09/22 07:20:05;;;;;;;1.70;1.20;;;;;;;15.17;67.76;100585.25;5013052;28;20030;-70
2022/09/22 07:22:30;;;;;;;1.58;1.20;;;;;;;15.18;68.02;100587.88;5013378;28;20125;-70
2022/09/22 07:24:56;;;;;;;1.95;1.40;;;;;;;15.28;69.65;100588.94;5013217;28;20022;-68
2022/09/22 07:27:24;;;;;;;2.03;1.13;;;;;;;15.53;69.47;100597.22;5013004;28;20026;-68
2022/09/22 07:29:51;;;;;;;1.25;1.10;;;;;;;15.25;67.27;100588.84;5028241;28;20453;-68
2022/09/22 07:32:17;;;;;;;1.67;1.20;;;;;;;15.51;69.02;100586.78;5013091;28;20068;-72
2022/09/22 07:34:43;;;;;;;1.50;1.30;;;;;;;15.63;67.35;100585.25;5012547;28;20030;-66
2022/09/22 07:37:10;;;;;;;2.15;1.08;;;;;;;15.66;68.52;100586.19;4994656;28;20045;-65
2022/09/22 07:39:35;;;;;;;2.15;1.30;;;;;;;15.91;68.72;100597.03;5012524;28;20022;-67
2022/09/22 07:42:00;;;;;;;1.52;1.30;;;;;;;15.90;67.22;100599.63;5013385;28;20448;-68
2022/09/22 07:47:10;;;;;;;1.60;1.30;;;;;;;16.04;66.51;100594.63;5012611;28;20581;-71
2022/09/22 07:49:35;;;;;;;1.58;1.20;;;;;;;15.87;65.33;100605.66;5012766;28;20026;-70
2022/09/22 07:52:00;;;;;;;2.58;1.20;;;;;;;15.97;66.48;100604.09;5012508;28;20056;-69
2022/09/22 07:54:26;;;;;;;1.42;1.25;;;;;;;16.25;66.94;100601.91;5043566;28;20034;-70
2022/09/22 07:56:57;;;;;;;4.90;1.40;;;;;;;16.42;68.68;100597.84;5012416;28;20485;-69
2022/09/22 07:59:23;;;;;;;1.70;1.30;;;;;;;16.72;69.32;100585.25;5012635;28;20029;-72
2022/09/22 08:01:49;;;;;;;1.73;1.40;;;;;;;16.88;68.90;100591.53;5012563;28;20033;-66
2022/09/22 08:04:21;;;;;;;12.65;10.68;;;;;;;16.44;65.94;100597.88;5012526;28;20026;-66
2022/09/22 08:06:54;;;;;;;2.58;1.75;;;;;;;16.62;64.83;100599.88;5012166;28;20037;-66
2022/09/22 08:09:20;;;;;;;1.95;1.60;;;;;;;16.89;64.97;100588.94;5041504;28;20778;-68
2022/09/22 08:11:47;;;;;;;1.33;1.13;;;;;;;16.93;62.11;100593.38;5012552;28;20028;-71
2022/09/22 08:14:19;;;;;;;2.10;1.05;;;;;;;16.93;61.22;100597.72;5012222;28;20515;-70
2022/09/22 08:16:45;;;;;;;1.50;1.25;;;;;;;16.98;64.70;100596.94;5012323;28;20034;-70
2022/09/22 08:19:14;;;;;;;1.33;1.20;;;;;;;16.92;61.78;100594.25;5012136;28;20389;-71
2022/09/22 08:21:45;;;;;;;1.85;1.30;;;;;;;16.90;61.68;100592.44;5011929;28;20030;-70
2022/09/22 08:24:12;;;;;;;2.60;1.30;;;;;;;16.97;62.63;100591.66;5012292;28;20451;-73
2022/09/22 08:26:39;;;;;;;3.25;1.55;;;;;;;17.10;62.30;100590.97;5011949;28;20034;-70
2022/09/22 08:29:06;;;;;;;1.80;1.25;;;;;;;17.40;62.95;100575.66;5012099;28;20029;-69
2022/09/22 08:31:34;;;;;;;5.22;1.50;;;;;;;17.55;60.24;100577.56;5011194;28;20044;-73
2022/09/22 08:33:59;;;;;;;2.13;1.30;;;;;;;17.59;58.01;100579.31;5043524;28;20126;-69
2022/09/22 08:36:26;;;;;;;2.00;1.15;;;;;;;17.32;58.01;100585.13;5011811;28;20535;-68
2022/09/22 08:38:58;;;;;;;3.20;1.40;;;;;;;17.04;60.58;100543.09;5012017;28;20041;-66
2022/09/22 08:41:38;;;;;;;3.85;1.30;;;;;;;17.00;61.08;100586.50;5011939;28;20100;-69
2022/09/22 08:44:06;;;;;;;3.45;1.40;;;;;;;16.90;62.01;100580.28;5011734;28;20480;-72
2022/09/22 08:46:52;;;;;;;1.73;1.48;;;;;;;16.82;63.02;100576.69;5026677;28;20547;-68
2022/09/22 08:52:48;;;;;;;1.15;1.05;;;;;;;16.58;59.98;100528.56;5049042;28;20063;-66
2022/09/22 08:55:22;;;;;;;3.35;1.20;;;;;;;17.00;62.47;100563.03;5048629;28;20547;-66
2022/09/22 08:58:13;;;;;;;1.58;1.00;;;;;;;17.25;62.00;100565.94;5048735;28;20134;-69
2022/09/22 09:00:42;;;;;;;3.08;1.33;;;;;;;17.45;60.68;100564.41;5048871;28;20037;-65
2022/09/22 09:03:32;;;;;;;1.65;1.25;;;;;;;17.66;61.55;100559.38;5048741;28;20040;-68
2022/09/22 09:06:19;;;;;;;1.17;1.08;;;;;;;17.56;58.92;100563.66;5048541;28;20025;-70
2022/09/22 09:09:10;;;;;;;1.67;1.25;;;;;;;17.63;57.64;100565.44;5048602;28;20087;-69
2022/09/22 09:11:50;;;;;;;3.05;1.20;;;;;;;17.57;58.01;100560.16;5048401;28;20098;-69
2022/09/22 09:14:40;;;;;;;1.33;1.02;;;;;;;17.35;57.98;100553.88;5048433;28;20569;-66
2022/09/22 09:17:16;;;;;;;3.30;1.33;;;;;;;17.08;58.65;100550.94;5048439;28;20637;-67
2022/09/22 09:20:23;;;;;;;2.28;1.23;;;;;;;17.10;59.16;100546.63;5048402;28;20040;-69
2022/09/22 09:22:54;;;;;;;2.50;1.20;;;;;;;16.84;59.40;100554.13;5028300;28;20583;-68
2022/09/22 09:25:52;;;;;;;4.13;2.83;;;;;;;16.87;59.90;100546.31;5028528;28;20052;-69
2022/09/22 09:28:23;;;;;;;2.67;1.73;;;;;;;16.80;60.51;100544.50;4949040;28;20040;-69
2022/09/22 09:30:52;;;;;;;2.53;1.30;;;;;;;16.87;60.24;100537.63;4931219;29;20046;-66
2022/09/22 09:33:48;;;;;;;4.85;1.40;;;;;;;16.74;60.61;100534.00;4931054;29;20050;-69
2022/09/22 09:36:40;;;;;;;3.97;1.60;;;;;;;16.82;61.57;100537.56;4931204;29;20171;-66
2022/09/22 09:39:20;;;;;;;2.00;1.38;;;;;;;16.65;59.68;100538.22;4950083;29;20071;-66
2022/09/22 09:41:48;;;;;;;2.75;1.63;;;;;;;16.52;62.05;100544.13;4950148;29;20035;-70
2022/09/22 09:44:20;;;;;;;2.30;1.00;;;;;;;16.69;59.65;100538.28;4948080;29;20050;-66
2022/09/22 09:47:04;;;;;;;2.25;1.42;;;;;;;16.93;57.14;100535.13;4949110;29;20059;-70
2022/09/22 09:49:30;;;;;;;4.20;1.50;;;;;;;16.96;57.65;100540.41;4949357;28;20051;-69
2022/09/22 09:51:59;;;;;;;2.25;1.20;;;;;;;16.94;56.68;100545.56;4949436;29;20041;-69
2022/09/22 09:54:26;;;;;;;1.53;1.20;;;;;;;17.07;55.47;100538.78;4949488;29;20035;-68
2022/09/22 09:57:14;;;;;;;6.80;1.80;;;;;;;17.07;53.40;100530.06;4946228;29;20224;-67
2022/09/22 10:00:30;;;;;;;1.50;1.20;;;;;;;17.14;56.90;100540.59;4943532;29;20035;-69
2022/09/22 10:03:01;;;;;;;2.22;1.10;;;;;;;17.14;55.51;100539.72;4944721;28;20102;-70
2022/09/22 10:05:28;;;;;;;2.30;1.10;;;;;;;17.29;54.59;100539.88;5007855;28;20049;-69
2022/09/22 10:08:00;;;;;;;1.80;1.58;;;;;;;17.33;55.76;100538.16;5023861;28;20033;-70
2022/09/22 10:10:28;;;;;;;2.60;1.33;;;;;;;17.21;56.83;100551.09;5011622;28;20045;-68
2022/09/22 10:13:18;;;;;;;2.45;1.67;;;;;;;17.12;55.73;100536.22;5007827;28;20041;-69
2022/09/22 10:16:04;;;;;;;1.63;1.00;;;;;;;16.89;55.79;100534.19;5007513;28;20068;-68
2022/09/22 10:18:38;;;;;;;2.92;1.73;;;;;;;16.78;57.57;100500.16;5008453;28;20033;-68
2022/09/22 10:21:22;;;;;;;3.08;1.60;;;;;;;16.73;59.83;100524.44;4996755;28;20065;-67
2022/09/22 10:23:52;;;;;;;1.60;1.27;;;;;;;16.27;62.26;100529.88;4989066;28;20027;-68
2022/09/22 10:26:29;;;;;;;2.55;1.50;;;;;;;16.10;64.01;100540.94;4989236;28;20109;-69
2022/09/22 10:29:12;;;;;;;3.75;1.10;;;;;;;15.72;62.51;100527.28;4988982;28;20057;-68
2022/09/22 10:31:59;;;;;;;1.73;1.30;;;;;;;15.79;61.65;100524.78;4989185;28;20031;-68
2022/09/22 10:34:33;;;;;;;2.67;1.50;;;;;;;16.03;63.10;100512.19;4989782;28;20088;-68
2022/09/22 10:37:00;;;;;;;1.52;1.20;;;;;;;16.13;61.96;100482.81;4993729;28;20477;-69
2022/09/22 10:39:48;;;;;;;1.25;1.15;;;;;;;16.24;60.62;100498.59;4989547;28;20038;-68
2022/09/22 10:42:34;;;;;;;1.88;1.30;;;;;;;16.57;58.18;100520.75;5003737;28;20100;-68
2022/09/22 10:45:05;;;;;;;1.45;1.10;;;;;;;16.84;54.54;100514.13;4988856;28;20113;-68
2022/09/22 10:47:40;;;;;;;1.30;0.90;;;;;;;17.11;54.09;100519.69;4988880;28;20054;-71
2022/09/22 10:50:18;;;;;;;2.53;1.20;;;;;;;17.17;51.48;100486.69;4997268;28;20026;-72
2022/09/22 10:52:46;;;;;;;1.23;1.13;;;;;;;17.64;50.35;100514.97;4993764;28;20038;-72
2022/09/22 10:55:17;;;;;;;0.90;0.90;;;;;;;17.90;50.96;100509.97;4992847;28;20054;-72
2022/09/22 10:58:32;;;;;;;3.55;1.10;;;;;;;18.39;50.89;100505.94;4993071;28;20035;-72
2022/09/22 11:01:19;;;;;;;1.08;0.98;;;;;;;18.66;51.15;100504.34;4990307;28;20039;-72
2022/09/22 11:04:05;;;;;;;1.10;1.00;;;;;;;18.56;47.11;100504.28;4990773;28;20725;-72
2022/09/22 11:13:17;;;;;;;1.38;1.08;;;;;;;18.69;50.26;100501.72;4916209;29;20087;-73
2022/09/22 11:16:05;;;;;;;1.15;1.00;;;;;;;18.36;48.45;100498.97;4913439;29;20063;-72
2022/09/22 11:18:56;;;;;;;2.33;1.15;;;;;;;18.17;47.64;100500.59;4913516;29;20521;-72
2022/09/22 11:21:53;;;;;;;1.60;1.40;;;;;;;18.10;49.06;100498.81;4913490;29;20044;-71
2022/09/22 11:24:58;;;;;;;3.33;1.42;;;;;;;18.57;46.76;100489.50;4913343;29;20062;-71
2022/09/22 11:27:57;;;;;;;1.95;1.20;;;;;;;18.72;47.16;100459.91;4913180;29;20036;-71
2022/09/22 11:30:23;;;;;;;1.65;1.00;;;;;;;18.82;46.67;100494.81;4915203;29;20048;-72
2022/09/22 11:33:20;;;;;;;2.92;1.40;;;;;;;18.99;47.95;100494.88;4914029;29;20104;-70
2022/09/22 11:35:59;;;;;;;2.22;1.13;;;;;;;18.69;45.33;100493.88;4893932;29;20392;-71
2022/09/22 11:38:33;;;;;;;2.70;1.50;;;;;;;19.22;45.83;100487.09;4894577;29;20029;-73
2022/09/22 11:41:14;;;;;;;2.55;1.55;;;;;;;19.62;47.28;100478.41;4894247;29;20488;-72
2022/09/22 11:44:04;;;;;;;1.75;1.30;;;;;;;19.15;46.08;100426.03;4894104;29;20154;-71
2022/09/22 11:47:04;;;;;;;2.92;1.30;;;;;;;19.79;47.56;100479.25;4893986;29;20786;-71
2022/09/22 11:49:32;;;;;;;4.47;1.23;;;;;;;20.14;46.46;100474.88;4985838;28;20043;-71
2022/09/22 11:52:06;;;;;;;2.60;1.48;;;;;;;20.31;50.00;100438.13;4990889;28;20026;-72
2022/09/22 11:54:46;;;;;;;3.53;1.75;;;;;;;20.71;46.91;100474.72;4990010;28;20042;-72
2022/09/22 11:57:16;;;;;;;6.82;3.67;;;;;;;20.36;42.72;100479.19;4989995;28;20030;-71
2022/09/22 11:59:58;;;;;;;1.75;1.38;;;;;;;19.51;43.62;100474.00;5005410;28;20042;-71